createdAt,value
2022-10-07T00:00:50.228Z,70.81
2022-10-07T00:03:17.926Z,70.99
2022-10-07T00:05:45.038Z,70.87
2022-10-07T00:08:12.008Z,70.85
2022-10-07T00:10:42.927Z,71.21
2022-10-07T00:13:11.205Z,72.58
2022-10-07T00:15:37.965Z,72.11
2022-10-07T00:18:04.858Z,72.57
2022-10-07T00:20:31.606Z,72.18
2022-10-07T00:22:58.232Z,71.55
2022-10-07T00:25:24.865Z,71.40
2022-10-07T00:27:51.790Z,70.13
2022-10-07T00:30:18.392Z,70.04
2022-10-07T00:32:45.125Z,70.87
2022-10-07T00:35:11.931Z,70.87
2022-10-07T00:37:38.619Z,70.71
2022-10-07T00:40:05.569Z,70.39
2022-10-07T00:42:32.415Z,69.71
2022-10-07T00:44:59.011Z,69.94
2022-10-07T00:47:32.260Z,70.87
2022-10-07T00:50:09.185Z,72.24
2022-10-07T00:52:40.024Z,71.55
2022-10-07T00:55:11.348Z,71.79
2022-10-07T00:57:39.730Z,71.15
2022-10-07T01:00:07.778Z,71.34
2022-10-07T01:02:36.789Z,70.68
2022-10-07T01:05:06.548Z,70.49
2022-10-07T01:07:38.114Z,70.59
2022-10-07T01:10:06.397Z,70.41
2022-10-07T01:12:33.111Z,70.71
2022-10-07T01:15:18.547Z,70.81
2022-10-07T01:18:00.868Z,71.34
2022-10-07T01:20:33.020Z,71.24
2022-10-07T01:23:12.012Z,70.91
2022-10-07T01:26:16.257Z,70.52
2022-10-07T01:29:00.580Z,70.25
2022-10-07T01:31:47.261Z,71.00
2022-10-07T01:34:15.099Z,71.56
2022-10-07T01:36:44.510Z,71.14
2022-10-07T01:39:15.669Z,70.60
2022-10-07T01:41:42.649Z,70.21
2022-10-07T01:44:12.467Z,70.33
2022-10-07T01:46:39.425Z,70.30
2022-10-07T01:49:08.446Z,70.24
2022-10-07T01:51:42.359Z,70.72
2022-10-07T01:54:35.375Z,70.29
2022-10-07T01:57:15.768Z,70.21
2022-10-07T01:59:45.404Z,69.87
2022-10-07T02:02:38.489Z,70.76
2022-10-07T02:05:28.420Z,70.67
2022-10-07T02:08:11.838Z,70.71
2022-10-07T02:10:50.198Z,70.80
2022-10-07T02:13:33.385Z,70.71
2022-10-07T02:16:10.331Z,70.63
2022-10-07T02:18:39.823Z,70.59
2022-10-07T02:21:10.443Z,69.67
2022-10-07T02:23:41.030Z,69.97
2022-10-07T02:26:10.001Z,70.73
2022-10-07T02:28:41.312Z,71.15
2022-10-07T02:31:12.637Z,70.71
2022-10-07T02:33:41.275Z,70.65
2022-10-07T02:36:13.362Z,70.49
2022-10-07T02:38:40.413Z,70.46
2022-10-07T02:41:13.276Z,70.41
2022-10-07T02:43:48.626Z,70.13
2022-10-07T02:46:30.351Z,70.75
2022-10-07T02:49:06.669Z,70.91
2022-10-07T02:51:40.622Z,71.93
2022-10-07T02:54:07.654Z,72.40
2022-10-07T02:56:37.866Z,71.70
2022-10-07T02:59:08.170Z,72.03
2022-10-07T03:01:42.253Z,72.01
2022-10-07T03:04:09.462Z,72.69
2022-10-07T03:06:36.249Z,72.73
2022-10-07T03:09:03.789Z,72.62
2022-10-07T03:11:30.689Z,72.57
2022-10-07T03:13:57.488Z,72.84
2022-10-07T03:16:24.423Z,71.92
2022-10-07T03:18:51.101Z,72.69
2022-10-07T03:21:40.711Z,72.26
2022-10-07T03:24:07.946Z,72.70
2022-10-07T03:26:40.562Z,72.11
2022-10-07T03:29:07.438Z,72.13
2022-10-07T03:31:34.369Z,71.15
2022-10-07T03:34:01.293Z,71.43
2022-10-07T03:36:28.265Z,71.71
2022-10-07T03:38:55.351Z,71.21
2022-10-07T03:41:22.971Z,71.25
2022-10-07T03:43:52.893Z,71.76
2022-10-07T03:46:21.992Z,71.22
2022-10-07T03:48:49.655Z,72.01
2022-10-07T03:51:17.176Z,71.42
2022-10-07T03:53:44.611Z,71.23
2022-10-07T03:56:11.773Z,71.32
2022-10-07T03:58:41.181Z,70.67
2022-10-07T04:01:12.135Z,71.26
2022-10-07T04:03:44.719Z,72.08
2022-10-07T04:06:11.609Z,72.00
2022-10-07T04:08:38.718Z,72.38
2022-10-07T04:11:06.191Z,73.10
2022-10-07T04:13:33.799Z,73.44
2022-10-07T04:16:07.700Z,74.12
2022-10-07T04:18:34.865Z,74.49
2022-10-07T04:21:02.213Z,75.38
2022-10-07T04:23:31.462Z,75.20
2022-10-07T04:25:58.095Z,75.98
2022-10-07T04:28:25.661Z,75.86
2022-10-07T04:31:03.860Z,77.38
2022-10-07T04:33:38.084Z,77.43
2022-10-07T04:36:07.352Z,78.49
2022-10-07T04:38:37.763Z,78.45
2022-10-07T04:41:07.880Z,77.52
2022-10-07T04:43:36.803Z,78.52
2022-10-07T04:46:12.023Z,78.38
2022-10-07T04:48:46.455Z,78.45
2022-10-07T04:51:16.213Z,79.43
2022-10-07T04:53:56.321Z,77.79
2022-10-07T04:56:26.982Z,76.11
2022-10-07T04:58:54.049Z,76.27
2022-10-07T05:01:20.969Z,76.76
2022-10-07T05:03:48.666Z,77.06
2022-10-07T05:06:15.936Z,77.49
2022-10-07T05:08:43.447Z,76.56
2022-10-07T05:11:11.900Z,77.46
2022-10-07T05:13:47.917Z,76.70
2022-10-07T05:16:15.487Z,76.59
2022-10-07T05:18:42.721Z,77.10
2022-10-07T05:21:11.978Z,76.65
2022-10-07T05:23:42.833Z,75.91
2022-10-07T05:26:13.820Z,76.16
2022-10-07T05:28:43.266Z,76.03
2022-10-07T05:31:14.264Z,75.87
2022-10-07T05:33:43.577Z,76.24
2022-10-07T05:36:11.640Z,76.00
2022-10-07T05:38:39.549Z,75.23
2022-10-07T05:41:08.295Z,74.65
2022-10-07T05:43:39.479Z,75.87
2022-10-07T05:46:12.110Z,75.10
2022-10-07T05:48:45.854Z,75.56
2022-10-07T05:51:13.191Z,75.80
2022-10-07T05:53:41.184Z,75.88
2022-10-07T05:56:11.092Z,77.21
2022-10-07T05:58:38.704Z,77.01
2022-10-07T06:01:14.028Z,76.43
2022-10-07T06:03:43.486Z,74.61
2022-10-07T06:06:10.773Z,76.70
2022-10-07T06:08:37.794Z,75.32
2022-10-07T06:11:06.241Z,74.72
2022-10-07T06:13:34.659Z,74.84
2022-10-07T06:16:03.050Z,74.93
2022-10-07T06:18:32.634Z,73.78
2022-10-07T06:21:01.333Z,73.50
2022-10-07T06:23:30.646Z,73.33
2022-10-07T06:26:04.055Z,74.30
2022-10-07T06:28:40.715Z,74.58
2022-10-07T06:31:14.981Z,75.04
2022-10-07T06:33:43.545Z,74.81
2022-10-07T06:36:13.389Z,74.67
2022-10-07T06:38:46.765Z,74.83
2022-10-07T06:41:14.656Z,75.04
2022-10-07T06:43:41.801Z,75.54
2022-10-07T06:46:20.167Z,75.91
2022-10-07T06:48:49.606Z,75.98
2022-10-07T06:51:19.994Z,75.82
2022-10-07T06:53:52.319Z,76.11
2022-10-07T06:56:19.804Z,76.80
2022-10-07T06:58:47.436Z,77.64
2022-10-07T07:01:16.262Z,77.83
2022-10-07T07:03:42.887Z,78.45
2022-10-07T07:06:10.280Z,78.71
2022-10-07T07:08:37.916Z,79.03
2022-10-07T07:11:13.613Z,79.27
2022-10-07T07:13:43.839Z,80.23
2022-10-07T07:16:12.992Z,80.19
2022-10-07T07:18:39.700Z,80.43
2022-10-07T07:21:06.588Z,80.99
2022-10-07T07:23:33.501Z,81.28
2022-10-07T07:26:00.942Z,82.59
2022-10-07T07:28:27.834Z,81.99
2022-10-07T07:30:54.979Z,83.37
2022-10-07T07:33:21.611Z,82.68
2022-10-07T07:35:48.779Z,82.40
2022-10-07T07:38:15.948Z,81.65
2022-10-07T07:40:42.919Z,81.80
2022-10-07T07:43:09.801Z,82.54
2022-10-07T07:45:38.059Z,82.37
2022-10-07T07:48:05.137Z,82.60
2022-10-07T07:50:33.639Z,82.36
2022-10-07T07:53:00.592Z,82.58
2022-10-07T07:55:27.481Z,84.03
2022-10-07T07:57:54.495Z,83.89
2022-10-07T08:00:21.381Z,83.44
2022-10-07T08:02:59.385Z,82.87
2022-10-07T08:05:26.347Z,81.83
2022-10-07T08:07:55.854Z,82.46
2022-10-07T08:10:24.587Z,81.79
2022-10-07T08:12:51.452Z,83.03
2022-10-07T08:15:18.390Z,82.41
2022-10-07T08:17:46.017Z,81.30
2022-10-07T08:20:12.947Z,80.52
2022-10-07T08:22:39.746Z,79.97
2022-10-07T08:25:07.025Z,78.93
2022-10-07T08:27:34.594Z,78.90
2022-10-07T08:30:02.401Z,78.70
2022-10-07T08:32:30.997Z,79.26
2022-10-07T08:34:57.917Z,78.28
2022-10-07T08:37:24.637Z,78.85
2022-10-07T08:39:51.614Z,79.05
2022-10-07T08:42:35.640Z,78.99
2022-10-07T08:45:02.546Z,78.90
2022-10-07T08:47:39.461Z,78.19
2022-10-07T08:50:19.099Z,76.49
2022-10-07T08:53:03.488Z,74.80
2022-10-07T08:55:54.419Z,74.43
2022-10-07T08:58:50.798Z,74.74
2022-10-07T09:01:48.648Z,75.91
2022-10-07T09:04:37.071Z,74.40
2022-10-07T09:07:08.469Z,74.35
2022-10-07T09:09:43.825Z,72.54
2022-10-07T09:12:20.690Z,69.73
2022-10-07T09:14:51.417Z,69.72
2022-10-07T09:17:41.912Z,71.10
2022-10-07T09:20:16.589Z,71.44
2022-10-07T09:22:47.769Z,70.33
2022-10-07T09:25:25.525Z,70.45
2022-10-07T09:27:52.673Z,68.79
2022-10-07T09:30:21.085Z,69.42
2022-10-07T09:32:55.037Z,67.93
2022-10-07T09:35:24.861Z,68.24
2022-10-07T09:38:11.704Z,65.99
2022-10-07T09:40:44.296Z,66.19
2022-10-07T09:43:12.333Z,64.98
2022-10-07T09:45:45.051Z,63.51
2022-10-07T09:48:21.133Z,64.35
2022-10-07T09:50:48.354Z,63.08
2022-10-07T09:53:26.398Z,62.02
2022-10-07T09:55:54.103Z,59.99
2022-10-07T09:58:24.754Z,60.00
2022-10-07T10:00:54.150Z,60.02
2022-10-07T10:03:28.103Z,61.12
2022-10-07T10:06:06.731Z,56.98
2022-10-07T10:08:37.009Z,56.34
2022-10-07T10:11:07.449Z,57.79
2022-10-07T10:13:39.338Z,59.30
2022-10-07T10:16:27.616Z,57.53
2022-10-07T10:19:00.265Z,55.62
2022-10-07T10:21:28.552Z,55.67
2022-10-07T10:24:18.725Z,57.74
2022-10-07T10:27:06.016Z,56.19
2022-10-07T10:29:55.461Z,57.55
2022-10-07T10:32:37.457Z,54.16
2022-10-07T10:35:16.107Z,54.21
2022-10-07T10:38:13.925Z,55.67
2022-10-07T10:41:19.937Z,57.83
2022-10-07T10:44:07.919Z,55.79
2022-10-07T10:46:52.239Z,54.20
2022-10-07T10:49:43.811Z,54.62
2022-10-07T10:52:19.672Z,53.92
2022-10-07T10:54:55.601Z,52.97
2022-10-07T10:57:50.930Z,54.09
2022-10-07T11:00:22.952Z,53.26
2022-10-07T11:03:28.523Z,52.98
2022-10-07T11:05:56.162Z,52.59
2022-10-07T11:08:27.348Z,51.74
2022-10-07T11:10:58.512Z,53.52
2022-10-07T11:13:52.392Z,52.60
2022-10-07T11:16:44.039Z,51.56
2022-10-07T11:19:23.921Z,51.16
2022-10-07T11:21:54.613Z,51.24
2022-10-07T11:24:30.596Z,52.15
2022-10-07T11:27:04.270Z,50.96
2022-10-07T11:29:34.081Z,52.84
2022-10-07T11:32:44.737Z,51.66
2022-10-07T11:35:33.983Z,50.01
2022-10-07T11:38:16.652Z,51.37
2022-10-07T11:40:52.072Z,51.90
2022-10-07T11:43:30.385Z,49.60
2022-10-07T11:46:18.157Z,48.86
2022-10-07T11:49:12.868Z,49.35
2022-10-07T11:52:02.757Z,51.76
2022-10-07T11:54:42.339Z,50.02
2022-10-07T11:57:24.689Z,49.45
2022-10-07T11:59:58.730Z,49.80
2022-10-07T12:02:28.604Z,50.98
2022-10-07T12:04:59.244Z,50.08
2022-10-07T12:07:32.268Z,50.45
2022-10-07T12:10:02.065Z,49.75
2022-10-07T12:12:44.386Z,50.10
2022-10-07T12:15:28.905Z,48.32
2022-10-07T12:18:05.882Z,49.98
2022-10-07T12:20:34.163Z,48.07
2022-10-07T12:23:19.164Z,49.43
2022-10-07T12:25:50.312Z,49.34
2022-10-07T12:28:32.182Z,49.54
2022-10-07T12:31:04.904Z,51.34
2022-10-07T12:33:47.813Z,50.18
2022-10-07T12:36:23.504Z,50.52
2022-10-07T12:38:59.205Z,49.10
2022-10-07T12:41:26.791Z,50.62
2022-10-07T12:44:32.443Z,49.39
2022-10-07T12:47:08.495Z,49.83
2022-10-07T12:49:37.133Z,49.49
2022-10-07T12:52:09.615Z,49.27
2022-10-07T12:54:57.777Z,49.65
2022-10-07T12:57:32.150Z,49.91
2022-10-07T13:00:04.692Z,51.44
2022-10-07T13:02:53.003Z,48.81
2022-10-07T13:05:57.348Z,49.76
2022-10-07T13:08:36.932Z,50.15
2022-10-07T13:11:18.384Z,49.10
2022-10-07T13:13:58.690Z,49.25
2022-10-07T13:16:38.730Z,51.38
2022-10-07T13:19:23.558Z,49.19
2022-10-07T13:21:59.813Z,48.50
2022-10-07T13:24:28.830Z,49.44
2022-10-07T13:26:56.728Z,49.02
2022-10-07T13:29:30.405Z,48.68
2022-10-07T13:32:16.906Z,49.31
2022-10-07T13:34:44.963Z,48.96
2022-10-07T13:37:31.161Z,48.49
2022-10-07T13:40:18.818Z,51.52
2022-10-07T13:42:46.170Z,49.63
2022-10-07T13:45:14.706Z,48.61
2022-10-07T13:47:45.335Z,48.59
2022-10-07T13:50:18.502Z,48.51
2022-10-07T13:52:48.122Z,49.36
2022-10-07T13:55:33.277Z,49.41
2022-10-07T13:58:03.758Z,48.12
2022-10-07T14:00:32.289Z,48.61
2022-10-07T14:02:59.627Z,49.06
2022-10-07T14:05:29.812Z,49.67
2022-10-07T14:08:10.989Z,48.34
2022-10-07T14:10:55.988Z,47.77
2022-10-07T14:13:22.996Z,47.49
2022-10-07T14:15:53.787Z,48.69
2022-10-07T14:18:20.710Z,48.49
2022-10-07T14:20:51.509Z,49.06
2022-10-07T14:23:32.051Z,49.12
2022-10-07T14:26:02.498Z,47.87
2022-10-07T14:28:32.159Z,46.54
2022-10-07T14:31:08.872Z,48.26
2022-10-07T14:33:49.468Z,47.47
2022-10-07T14:36:18.712Z,48.21
2022-10-07T14:38:47.707Z,46.65
2022-10-07T14:41:16.987Z,47.58
2022-10-07T14:43:45.974Z,47.31
2022-10-07T14:46:22.217Z,47.10
2022-10-07T14:48:49.977Z,48.07
2022-10-07T14:51:19.733Z,47.76
2022-10-07T14:53:53.442Z,48.95
2022-10-07T14:56:30.500Z,49.38
2022-10-07T14:59:02.524Z,50.79
2022-10-07T15:01:29.366Z,50.32
2022-10-07T15:03:57.484Z,50.70
2022-10-07T15:06:25.166Z,47.24
2022-10-07T15:08:51.774Z,49.14
2022-10-07T15:11:20.661Z,47.53
2022-10-07T15:13:48.557Z,48.85
2022-10-07T15:16:18.406Z,51.14
2022-10-07T15:18:52.202Z,51.63
2022-10-07T15:21:24.143Z,51.22
2022-10-07T15:23:53.252Z,51.84
2022-10-07T15:26:20.578Z,53.29
2022-10-07T15:28:57.448Z,53.48
2022-10-07T15:31:27.892Z,52.96
2022-10-07T15:33:55.353Z,51.27
2022-10-07T15:36:23.158Z,53.49
2022-10-07T15:38:51.828Z,54.57
2022-10-07T15:41:38.209Z,55.43
2022-10-07T15:44:14.686Z,55.18
2022-10-07T15:46:42.362Z,53.97
2022-10-07T15:49:09.236Z,54.39
2022-10-07T15:51:36.005Z,52.81
2022-10-07T15:54:04.008Z,54.93
2022-10-07T15:56:31.048Z,53.40
2022-10-07T15:58:57.723Z,52.83
2022-10-07T16:01:24.686Z,54.21
2022-10-07T16:03:51.499Z,54.68
2022-10-07T16:06:22.108Z,54.81
2022-10-07T16:08:50.309Z,54.87
2022-10-07T16:11:17.500Z,54.84
2022-10-07T16:13:46.158Z,57.31
2022-10-07T16:16:14.842Z,58.07
2022-10-07T16:18:45.744Z,55.49
2022-10-07T16:21:15.082Z,55.28
2022-10-07T16:23:44.032Z,55.31
2022-10-07T16:26:12.558Z,56.03
2022-10-07T16:28:40.956Z,57.91
2022-10-07T16:31:07.766Z,59.54
2022-10-07T16:33:34.464Z,59.75
2022-10-07T16:36:10.378Z,61.13
2022-10-07T16:38:37.035Z,59.93
2022-10-07T16:41:03.689Z,59.85
2022-10-07T16:43:30.510Z,58.83
2022-10-07T16:46:01.290Z,58.50
2022-10-07T16:48:28.184Z,58.35
2022-10-07T16:50:54.841Z,57.12
2022-10-07T16:53:21.513Z,58.78
2022-10-07T16:55:48.102Z,58.72
2022-10-07T16:58:14.814Z,58.87
2022-10-07T17:00:41.385Z,58.89
2022-10-07T17:03:07.986Z,58.84
2022-10-07T17:05:34.600Z,58.71
2022-10-07T17:08:01.353Z,59.10
2022-10-07T17:10:27.935Z,59.03
2022-10-07T17:12:54.729Z,59.76
2022-10-07T17:15:21.394Z,59.26
2022-10-07T17:17:48.500Z,59.34
2022-10-07T17:20:15.601Z,59.11
2022-10-07T17:22:42.747Z,59.30
2022-10-07T17:25:09.743Z,59.59
2022-10-07T17:27:37.176Z,59.41
2022-10-07T17:30:04.332Z,59.45
2022-10-07T17:32:30.936Z,59.24
2022-10-07T17:34:57.661Z,59.26
2022-10-07T17:37:24.358Z,59.47
2022-10-07T17:39:50.921Z,59.50
2022-10-07T17:42:17.604Z,60.07
2022-10-07T17:44:44.168Z,60.78
2022-10-07T17:47:10.878Z,61.31
2022-10-07T17:49:37.655Z,61.63
2022-10-07T17:52:04.268Z,61.58
2022-10-07T17:54:30.859Z,61.45
2022-10-07T17:56:57.797Z,61.36
2022-10-07T17:59:24.395Z,61.29
2022-10-07T18:01:51.081Z,61.42
2022-10-07T18:04:22.273Z,62.05
2022-10-07T18:06:51.380Z,61.93
2022-10-07T18:09:17.949Z,62.40
2022-10-07T18:11:45.582Z,61.97
2022-10-07T18:14:12.195Z,61.91
2022-10-07T18:16:38.882Z,61.88
2022-10-07T18:19:05.588Z,62.18
2022-10-07T18:21:32.479Z,63.02
2022-10-07T18:23:59.359Z,62.91
2022-10-07T18:26:26.101Z,62.64
2022-10-07T18:28:52.786Z,62.59
2022-10-07T18:31:19.859Z,63.01
2022-10-07T18:33:46.565Z,63.04
2022-10-07T18:36:17.015Z,63.00
2022-10-07T18:38:45.043Z,62.84
2022-10-07T18:41:13.981Z,63.07
2022-10-07T18:43:42.657Z,62.98
2022-10-07T18:46:17.274Z,63.12
2022-10-07T18:48:45.674Z,63.40
2022-10-07T18:51:13.592Z,62.93
2022-10-07T18:53:44.009Z,63.34
2022-10-07T18:56:12.950Z,63.03
2022-10-07T18:58:42.989Z,63.21
2022-10-07T19:01:15.311Z,64.17
2022-10-07T19:03:43.476Z,64.11
2022-10-07T19:06:19.305Z,64.58
2022-10-07T19:08:46.827Z,64.44
2022-10-07T19:11:18.609Z,65.05
2022-10-07T19:13:46.684Z,65.31
2022-10-07T19:16:26.877Z,65.54
2022-10-07T19:18:57.405Z,65.33
2022-10-07T19:21:25.124Z,65.31
2022-10-07T19:23:56.596Z,65.11
2022-10-07T19:26:26.336Z,65.34
2022-10-07T19:28:54.319Z,65.30
2022-10-07T19:31:27.739Z,65.16
2022-10-07T19:33:59.920Z,65.64
2022-10-07T19:36:26.983Z,65.94
2022-10-07T19:38:54.069Z,66.20
2022-10-07T19:41:23.886Z,65.10
2022-10-07T19:43:51.546Z,66.31
2022-10-07T19:46:20.078Z,66.91
2022-10-07T19:48:46.946Z,67.22
2022-10-07T19:51:16.508Z,67.24
2022-10-07T19:53:46.983Z,67.43
2022-10-07T19:56:19.618Z,67.56
2022-10-07T19:58:48.610Z,69.79
2022-10-07T20:01:18.981Z,69.79
2022-10-07T20:03:45.741Z,69.21
2022-10-07T20:06:12.733Z,68.88
2022-10-07T20:08:44.755Z,67.23
2022-10-07T20:11:12.478Z,65.99
2022-10-07T20:13:40.306Z,65.08
2022-10-07T20:16:08.774Z,64.96
2022-10-07T20:18:36.574Z,64.71
2022-10-07T20:21:08.964Z,64.91
2022-10-07T20:23:37.708Z,64.58
2022-10-07T20:26:08.682Z,65.68
2022-10-07T20:28:35.957Z,67.64
2022-10-07T20:31:04.317Z,67.77
2022-10-07T20:33:36.826Z,65.26
2022-10-07T20:36:04.299Z,65.16
2022-10-07T20:38:31.362Z,64.28
2022-10-07T20:40:58.367Z,64.11
2022-10-07T20:43:25.520Z,64.83
2022-10-07T20:45:54.718Z,66.59
2022-10-07T20:48:22.028Z,67.40
2022-10-07T20:50:49.067Z,66.70
2022-10-07T20:53:15.700Z,66.46
2022-10-07T20:55:42.534Z,65.70
2022-10-07T20:58:09.388Z,66.03
2022-10-07T21:00:36.242Z,66.21
2022-10-07T21:03:02.918Z,66.78
2022-10-07T21:05:29.573Z,67.24
2022-10-07T21:07:56.147Z,66.21
2022-10-07T21:10:23.481Z,67.11
2022-10-07T21:12:50.214Z,67.91
2022-10-07T21:15:17.019Z,67.25
2022-10-07T21:17:43.728Z,66.70
2022-10-07T21:20:10.477Z,66.82
2022-10-07T21:22:39.583Z,66.35
2022-10-07T21:25:06.659Z,65.59
2022-10-07T21:27:33.534Z,62.57
2022-10-07T21:30:00.707Z,60.94
2022-10-07T21:32:29.009Z,62.42
2022-10-07T21:34:56.068Z,63.22
2022-10-07T21:37:22.882Z,63.77
2022-10-07T21:39:49.860Z,64.32
2022-10-07T21:42:16.839Z,64.01
2022-10-07T21:44:43.611Z,64.46
2022-10-07T21:47:10.656Z,65.85
2022-10-07T21:49:37.776Z,67.46
2022-10-07T21:52:04.479Z,65.94
2022-10-07T21:54:31.705Z,65.73
2022-10-07T21:56:58.492Z,65.57
2022-10-07T21:59:25.323Z,65.61
2022-10-07T22:01:52.202Z,65.91
2022-10-07T22:04:19.415Z,66.46
2022-10-07T22:06:46.717Z,67.70
2022-10-07T22:09:15.175Z,69.13
2022-10-07T22:11:42.875Z,69.79
2022-10-07T22:14:12.832Z,70.31
2022-10-07T22:16:40.835Z,70.55
2022-10-07T22:19:08.058Z,70.94
2022-10-07T22:21:35.295Z,71.31
2022-10-07T22:24:04.002Z,72.24
2022-10-07T22:26:33.223Z,72.05
2022-10-07T22:29:00.564Z,72.08
2022-10-07T22:31:27.318Z,72.94
2022-10-07T22:33:57.167Z,73.23
2022-10-07T22:36:24.547Z,73.51
2022-10-07T22:38:51.734Z,73.54
2022-10-07T22:41:19.273Z,73.93
2022-10-07T22:43:47.977Z,73.90
2022-10-07T22:46:17.612Z,75.16
2022-10-07T22:48:44.905Z,75.34
2022-10-07T22:51:13.749Z,74.72
2022-10-07T22:53:45.461Z,74.89
2022-10-07T22:56:15.071Z,74.89
2022-10-07T22:58:44.001Z,74.83
2022-10-07T23:01:13.773Z,73.99
2022-10-07T23:03:42.053Z,74.73
2022-10-07T23:06:13.958Z,74.81
2022-10-07T23:08:42.611Z,74.56
2022-10-07T23:11:14.917Z,74.65
2022-10-07T23:13:41.828Z,74.15
2022-10-07T23:16:11.593Z,74.27
2022-10-07T23:18:39.780Z,73.74
2022-10-07T23:21:10.273Z,73.75
2022-10-07T23:23:38.506Z,74.35
2022-10-07T23:26:15.213Z,74.34
2022-10-07T23:28:42.465Z,75.17
2022-10-07T23:31:14.365Z,75.69
2022-10-07T23:33:41.377Z,75.69
2022-10-07T23:36:10.369Z,74.83
2022-10-07T23:38:38.644Z,74.26
2022-10-07T23:41:06.664Z,73.84
2022-10-07T23:43:33.900Z,73.38
2022-10-07T23:46:01.765Z,73.38
2022-10-07T23:48:28.827Z,72.96
2022-10-07T23:50:55.451Z,74.13
2022-10-07T23:53:23.222Z,75.24
2022-10-07T23:55:51.900Z,76.02
2022-10-07T23:58:21.486Z,76.00
